Piqua, Ohio
Current Conditions -  °F | °C
As of 1:15 AM on Thursday 23 Oct 2014 (Local Time) from KVES Reporting Station
Overcast Overcast  
Wind Chill: 39°   Ceiling: 2400
Heat Index: 39°   Visibility: 7mi
Dew Point: 39°   Wind: 0mph
Humidity: 100%   Direction: NA
Pressure: 30.28"   Gusts: NA
Location:  40.15°N, 84.24°W
Report Text: KVES 230515Z AUTO 00000KT 7SM OVC024 04/04 A3028 RMK AO2
Loading
Personal Weather Stations






























Interactive Weather Map
Tropical Storm Tracking
New forecast layout! Learn more

10-Day Weather Forecast

Advertisements
Track Severe Weather on mobile